Time;durP1;ratioP1;P1;durP2;ratioP2;P2;SDS_P1;SDS_P2;PMS_P1;PMS_P2;Temp;Humidity;BMP_temperature;BMP_pressure;BME280_temperature;BME280_humidity;BME280_pressure;Samples;Min_cycle;Max_cycle;Signal;HPM_P1;HPM_P2
2022/02/22 00:01:26;;;;;;;67.82;8.13;;;5.20;99.90;;;;;;5035474;28;20049;-73
2022/02/22 00:03:51;;;;;;;64.35;9.20;;;5.10;99.90;;;;;;5035680;28;20025;-73
2022/02/22 00:06:17;;;;;;;87.47;9.77;;;5.10;99.90;;;;;;5017981;28;20029;-73
2022/02/22 00:08:42;;;;;;;60.83;8.48;;;5.20;99.90;;;;;;5035752;28;20017;-74
2022/02/22 00:11:08;;;;;;;71.50;10.50;;;5.20;99.90;;;;;;5035876;28;20021;-74
2022/02/22 00:13:34;;;;;;;57.42;7.80;;;5.20;99.90;;;;;;5035524;28;20478;-73
2022/02/22 00:16:00;;;;;;;57.72;9.13;;;5.20;99.90;;;;;;5035503;28;20537;-73
2022/02/22 00:18:27;;;;;;;54.17;7.80;;;5.20;99.90;;;;;;5035407;28;20113;-73
2022/02/22 00:20:53;;;;;;;77.75;8.93;;;5.30;99.90;;;;;;5035286;28;20029;-73
2022/02/22 00:23:19;;;;;;;62.35;7.90;;;5.30;99.90;;;;;;5035003;28;20389;-74
2022/02/22 00:25:45;;;;;;;61.13;9.70;;;5.30;99.90;;;;;;5035262;28;20021;-74
2022/02/22 00:28:10;;;;;;;56.45;8.27;;;5.20;99.90;;;;;;5035421;28;20071;-73
2022/02/22 00:30:36;;;;;;;54.22;8.25;;;5.20;99.90;;;;;;5035126;28;20075;-74
2022/02/22 00:33:01;;;;;;;57.33;7.20;;;5.30;99.90;;;;;;5035681;28;20413;-73
2022/02/22 00:35:27;;;;;;;58.67;7.30;;;5.40;99.90;;;;;;5035320;28;20112;-73
2022/02/22 00:37:53;;;;;;;55.90;7.03;;;5.30;99.90;;;;;;5017347;28;20022;-73
2022/02/22 00:40:18;;;;;;;62.42;7.30;;;5.20;99.90;;;;;;5034910;28;20104;-74
2022/02/22 00:42:44;;;;;;;53.75;7.97;;;5.10;99.90;;;;;;5035014;28;20030;-74
2022/02/22 00:45:10;;;;;;;62.70;11.60;;;5.10;99.90;;;;;;5034904;28;20388;-74
2022/02/22 00:47:36;;;;;;;64.68;8.18;;;5.10;99.90;;;;;;5017090;28;20091;-74
2022/02/22 00:50:03;;;;;;;58.67;8.02;;;5.10;99.90;;;;;;5034804;28;20045;-74
2022/02/22 00:52:29;;;;;;;91.07;9.43;;;5.10;99.90;;;;;;5034754;28;20037;-74
2022/02/22 00:54:55;;;;;;;60.63;7.85;;;5.00;99.90;;;;;;5034757;28;20022;-74
2022/02/22 00:57:20;;;;;;;55.10;9.27;;;5.00;99.90;;;;;;5034715;28;20075;-74
2022/02/22 00:59:47;;;;;;;52.58;9.02;;;5.00;99.90;;;;;;5034597;28;20131;-74
2022/02/22 01:02:13;;;;;;;53.58;7.60;;;5.00;99.90;;;;;;5034896;28;20022;-74
2022/02/22 01:04:38;;;;;;;73.40;10.45;;;4.90;99.90;;;;;;5016815;28;20026;-73
2022/02/22 01:07:04;;;;;;;74.43;10.55;;;5.00;99.90;;;;;;5034415;28;20061;-73
2022/02/22 01:09:30;;;;;;;70.80;9.68;;;5.00;99.90;;;;;;5034868;28;20021;-74
2022/02/22 01:11:56;;;;;;;70.20;9.15;;;5.10;99.90;;;;;;5034393;28;20036;-74
2022/02/22 01:14:21;;;;;;;57.65;8.45;;;5.10;99.90;;;;;;5035029;28;20405;-74
2022/02/22 01:16:47;;;;;;;77.00;10.80;;;5.00;99.90;;;;;;5034496;28;20056;-74
2022/02/22 01:19:12;;;;;;;77.68;9.57;;;5.00;99.90;;;;;;5034115;28;20076;-74
2022/02/22 01:21:38;;;;;;;77.25;11.15;;;4.90;99.90;;;;;;5034268;28;20040;-73
2022/02/22 01:24:05;;;;;;;71.43;9.95;;;4.90;99.90;;;;;;5034533;28;20033;-73
2022/02/22 01:26:32;;;;;;;76.95;9.50;;;4.80;99.90;;;;;;5034319;28;20100;-74
2022/02/22 01:28:58;;;;;;;71.50;8.55;;;4.90;99.90;;;;;;5034225;28;20037;-74
2022/02/22 01:31:25;;;;;;;67.75;9.57;;;4.90;99.90;;;;;;5034102;28;20021;-74
2022/02/22 01:33:54;;;;;;;69.25;7.97;;;4.90;99.90;;;;;;5033735;28;20021;-74
2022/02/22 01:36:21;;;;;;;49.05;5.65;;;4.90;99.90;;;;;;5033884;28;20121;-73
2022/02/22 01:38:47;;;;;;;68.43;8.60;;;4.90;99.90;;;;;;5034311;28;20049;-73
2022/02/22 01:41:13;;;;;;;43.67;6.90;;;4.90;99.90;;;;;;5033833;28;20052;-74
2022/02/22 01:43:41;;;;;;;55.40;8.68;;;4.90;99.90;;;;;;5034062;28;20026;-74
2022/02/22 01:46:07;;;;;;;52.70;7.47;;;4.90;99.90;;;;;;5034010;28;20061;-74
2022/02/22 01:48:33;;;;;;;36.53;6.00;;;4.90;99.90;;;;;;5033855;28;20057;-73
2022/02/22 01:50:58;;;;;;;46.13;6.03;;;4.80;99.90;;;;;;5016164;28;20444;-74
2022/02/22 01:53:24;;;;;;;60.97;7.22;;;4.80;99.90;;;;;;5034036;28;20021;-74
2022/02/22 01:55:51;;;;;;;58.42;7.47;;;4.90;99.90;;;;;;5034344;28;20019;-74
2022/02/22 01:58:17;;;;;;;48.13;7.20;;;4.80;99.90;;;;;;5016240;28;20126;-74
2022/02/22 02:00:45;;;;;;;62.30;7.22;;;4.70;99.90;;;;;;5033890;28;20533;-74
2022/02/22 02:03:14;;;;;;;67.85;9.82;;;4.60;99.90;;;;;;5033825;28;20025;-74
2022/02/22 02:05:40;;;;;;;59.28;6.75;;;4.50;99.90;;;;;;5034042;28;20536;-74
2022/02/22 02:08:05;;;;;;;52.53;7.22;;;4.60;99.90;;;;;;5033953;28;20116;-73
2022/02/22 02:10:31;;;;;;;51.03;6.05;;;4.50;99.90;;;;;;5033671;28;20425;-74
2022/02/22 02:12:56;;;;;;;42.20;5.78;;;4.50;99.90;;;;;;5034350;28;20536;-74
2022/02/22 02:15:22;;;;;;;49.80;7.78;;;4.50;99.90;;;;;;5033661;28;20052;-74
2022/02/22 02:17:48;;;;;;;56.58;6.35;;;4.50;99.90;;;;;;5033620;28;20033;-74
2022/02/22 02:20:13;;;;;;;46.83;6.97;;;4.50;99.90;;;;;;5033602;28;20021;-74
2022/02/22 02:22:40;;;;;;;39.00;5.18;;;4.50;99.90;;;;;;5033623;28;20033;-73
2022/02/22 02:25:06;;;;;;;49.08;4.90;;;4.50;99.90;;;;;;5033856;28;20105;-73
2022/02/22 02:27:32;;;;;;;32.50;5.10;;;4.50;99.90;;;;;;5033674;28;20481;-73
2022/02/22 02:29:59;;;;;;;52.25;7.03;;;4.50;99.90;;;;;;5015857;28;20031;-74
2022/02/22 02:32:26;;;;;;;34.90;6.18;;;4.50;99.90;;;;;;5033804;28;20108;-73
2022/02/22 02:34:52;;;;;;;46.30;5.72;;;4.50;99.90;;;;;;5033571;28;20033;-74
2022/02/22 02:37:17;;;;;;;38.40;5.78;;;4.40;99.90;;;;;;5033450;28;20025;-74
2022/02/22 02:39:43;;;;;;;44.60;5.97;;;4.50;99.90;;;;;;5033475;28;20033;-74
2022/02/22 02:42:09;;;;;;;50.10;6.13;;;4.50;99.90;;;;;;5033583;28;20026;-73
2022/02/22 02:44:35;;;;;;;48.00;6.18;;;4.50;99.90;;;;;;5033548;28;20497;-73
2022/02/22 02:47:01;;;;;;;60.00;5.20;;;4.50;99.90;;;;;;5036123;28;20049;-73
2022/02/22 02:49:27;;;;;;;46.85;7.07;;;4.50;99.90;;;;;;5037319;28;20025;-74
2022/02/22 02:51:53;;;;;;;44.03;5.55;;;4.40;99.90;;;;;;5037350;28;20075;-74
2022/02/22 02:54:18;;;;;;;25.40;4.90;;;4.40;99.90;;;;;;5037253;28;20384;-74
2022/02/22 02:56:44;;;;;;;42.67;6.38;;;4.40;99.90;;;;;;5036928;28;20555;-74
2022/02/22 02:59:11;;;;;;;29.60;5.07;;;4.40;99.90;;;;;;5036921;28;20025;-74
2022/02/22 03:01:38;;;;;;;46.92;5.50;;;4.40;99.90;;;;;;5037656;28;20037;-74
2022/02/22 03:04:04;;;;;;;35.85;5.45;;;4.30;99.90;;;;;;5019127;28;20029;-73
2022/02/22 03:06:30;;;;;;;22.90;6.18;;;4.30;99.90;;;;;;5036842;28;20025;-73
2022/02/22 03:08:56;;;;;;;44.40;5.15;;;4.40;99.90;;;;;;5018981;28;20061;-73
2022/02/22 03:11:22;;;;;;;52.35;5.47;;;4.30;99.90;;;;;;5036748;28;20026;-73
2022/02/22 03:13:48;;;;;;;35.33;6.30;;;4.30;99.90;;;;;;5036827;28;20469;-73
2022/02/22 03:16:13;;;;;;;47.17;7.03;;;4.30;99.90;;;;;;5036704;28;20021;-73
2022/02/22 03:18:40;;;;;;;31.60;4.88;;;4.30;99.90;;;;;;5036655;28;20022;-73
2022/02/22 03:21:06;;;;;;;39.35;5.70;;;4.20;99.90;;;;;;5036420;28;20040;-74
2022/02/22 03:23:31;;;;;;;54.85;5.82;;;4.30;99.90;;;;;;5037041;28;20033;-74
2022/02/22 03:25:57;;;;;;;40.50;6.78;;;4.20;99.90;;;;;;5036501;28;20033;-73
2022/02/22 03:28:22;;;;;;;41.60;5.10;;;4.20;99.90;;;;;;5036369;28;20025;-73
2022/02/22 03:30:49;;;;;;;36.17;4.70;;;4.30;99.90;;;;;;5036413;28;20105;-74
2022/02/22 03:33:15;;;;;;;58.45;6.03;;;4.40;99.90;;;;;;5036609;28;20021;-73
2022/02/22 03:35:41;;;;;;;52.15;5.68;;;4.50;99.90;;;;;;5036317;28;20108;-73
2022/02/22 03:38:08;;;;;;;32.53;5.57;;;4.50;99.90;;;;;;5036239;28;20029;-73
2022/02/22 03:40:34;;;;;;;38.83;4.57;;;4.50;99.90;;;;;;5036451;28;20366;-73
2022/02/22 03:43:00;;;;;;;42.35;5.32;;;4.50;99.90;;;;;;5018396;28;20036;-73
2022/02/22 03:45:26;;;;;;;46.10;5.70;;;4.60;99.90;;;;;;5036757;28;20025;-73
2022/02/22 03:47:51;;;;;;;44.40;6.35;;;4.60;99.90;;;;;;5036345;28;20030;-73
2022/02/22 03:50:17;;;;;;;43.03;5.35;;;4.70;99.90;;;;;;5035868;28;20018;-74
2022/02/22 03:52:44;;;;;;;43.67;5.30;;;4.70;99.90;;;;;;5036236;28;20089;-73
2022/02/22 03:55:10;;;;;;;38.30;5.95;;;4.70;99.90;;;;;;5018116;28;20022;-73
2022/02/22 03:57:36;;;;;;;36.20;5.28;;;4.70;99.90;;;;;;5035480;28;20466;-73
2022/02/22 04:00:05;;;;;;;46.17;6.32;;;4.70;99.90;;;;;;5035887;28;20033;-73
2022/02/22 04:02:30;;;;;;;47.80;6.30;;;4.70;99.90;;;;;;5035693;28;20481;-73
2022/02/22 04:04:56;;;;;;;33.05;4.68;;;4.60;99.90;;;;;;5035733;28;20034;-73
2022/02/22 04:07:22;;;;;;;61.67;6.88;;;4.60;99.90;;;;;;5035902;28;20367;-74
2022/02/22 04:09:48;;;;;;;41.97;4.88;;;4.60;99.90;;;;;;5035563;28;20053;-73
2022/02/22 04:12:15;;;;;;;39.22;6.03;;;4.60;99.90;;;;;;5017852;28;20112;-73
2022/02/22 04:14:41;;;;;;;31.88;4.93;;;4.60;99.90;;;;;;5017885;28;20049;-73
2022/02/22 04:17:07;;;;;;;42.35;6.45;;;4.60;99.90;;;;;;5035443;28;20489;-74
2022/02/22 04:19:32;;;;;;;59.95;8.20;;;4.60;99.90;;;;;;5035921;28;20049;-74
2022/02/22 04:21:58;;;;;;;55.83;7.53;;;4.50;99.90;;;;;;5035419;28;20021;-74
2022/02/22 04:24:23;;;;;;;35.78;5.82;;;4.60;99.90;;;;;;5035378;28;20496;-73
2022/02/22 04:26:49;;;;;;;65.53;6.70;;;4.70;99.90;;;;;;5035089;28;20519;-73
2022/02/22 04:29:14;;;;;;;51.13;8.40;;;4.70;99.90;;;;;;5035266;28;20485;-74
2022/02/22 04:31:40;;;;;;;51.45;6.35;;;4.80;99.90;;;;;;5035270;28;20026;-74
2022/02/22 04:34:07;;;;;;;40.75;5.72;;;4.80;99.90;;;;;;5035160;28;20107;-73
2022/02/22 04:36:33;;;;;;;39.53;6.63;;;4.80;99.90;;;;;;5035657;28;20017;-73
2022/02/22 04:39:00;;;;;;;54.40;6.60;;;4.80;99.90;;;;;;5035064;28;20014;-73
2022/02/22 04:41:25;;;;;;;42.67;6.22;;;4.70;99.90;;;;;;5017209;28;20473;-73
2022/02/22 04:43:51;;;;;;;49.45;6.65;;;4.60;99.90;;;;;;5035538;28;20025;-73
2022/02/22 04:46:16;;;;;;;53.97;7.38;;;4.50;99.90;;;;;;5034978;28;20025;-73
2022/02/22 04:48:42;;;;;;;57.10;7.30;;;4.40;99.90;;;;;;5035188;28;20022;-73
2022/02/22 04:51:08;;;;;;;39.88;5.40;;;4.40;99.90;;;;;;5035380;28;20025;-74
2022/02/22 04:53:33;;;;;;;43.78;6.25;;;4.40;99.90;;;;;;5034773;28;20233;-73
2022/02/22 04:55:59;;;;;;;69.63;7.25;;;4.50;99.90;;;;;;5034732;28;20025;-73
2022/02/22 04:58:24;;;;;;;32.35;5.00;;;4.60;99.90;;;;;;5035023;28;20481;-73
2022/02/22 05:00:51;;;;;;;60.53;7.50;;;4.60;99.90;;;;;;5034575;28;20037;-74
2022/02/22 05:03:17;;;;;;;37.78;4.75;;;4.70;99.90;;;;;;5034740;28;20037;-74
2022/02/22 05:05:43;;;;;;;32.40;5.82;;;4.70;99.90;;;;;;5034638;28;20036;-73
2022/02/22 05:08:08;;;;;;;47.88;6.43;;;4.70;99.90;;;;;;5034429;28;20033;-73
2022/02/22 05:10:34;;;;;;;49.05;6.13;;;4.70;99.90;;;;;;5033639;28;20029;-73
2022/02/22 05:13:00;;;;;;;54.75;6.53;;;4.60;99.90;;;;;;5034433;28;20017;-73
2022/02/22 05:15:25;;;;;;;50.80;5.45;;;4.50;99.90;;;;;;5034416;28;20037;-73
2022/02/22 05:17:51;;;;;;;54.45;6.80;;;4.50;99.90;;;;;;5016865;28;20109;-73
2022/02/22 05:20:17;;;;;;;68.95;6.63;;;4.50;99.90;;;;;;5034398;28;20026;-74
2022/02/22 05:22:45;;;;;;;43.67;5.40;;;4.50;99.90;;;;;;5034257;28;20029;-73
2022/02/22 05:25:12;;;;;;;59.15;7.97;;;4.50;99.90;;;;;;5016557;28;20029;-73
2022/02/22 05:27:39;;;;;;;47.08;7.03;;;4.50;99.90;;;;;;5034714;28;20505;-73
2022/02/22 05:30:05;;;;;;;52.33;8.25;;;4.40;99.90;;;;;;5034312;28;20112;-74
2022/02/22 05:32:32;;;;;;;51.63;8.93;;;4.50;99.90;;;;;;5034277;28;20075;-73
2022/02/22 05:34:58;;;;;;;43.47;5.22;;;4.50;99.90;;;;;;5034226;28;20407;-73
2022/02/22 05:37:25;;;;;;;35.05;6.03;;;4.50;99.90;;;;;;5034120;28;20029;-73
2022/02/22 05:39:51;;;;;;;46.33;6.13;;;4.60;99.90;;;;;;5034110;28;20514;-74
2022/02/22 05:42:17;;;;;;;53.25;7.57;;;4.60;99.90;;;;;;5034019;28;20104;-74
2022/02/22 05:44:43;;;;;;;40.92;5.22;;;4.60;99.90;;;;;;5034057;28;20061;-73
2022/02/22 05:47:08;;;;;;;55.17;7.13;;;4.70;99.90;;;;;;5034054;28;20041;-74
2022/02/22 05:49:34;;;;;;;49.72;6.13;;;4.70;99.90;;;;;;5034174;28;20096;-74
2022/02/22 05:51:59;;;;;;;46.78;6.03;;;4.70;99.90;;;;;;5033958;28;20029;-73
2022/02/22 05:54:25;;;;;;;38.55;5.50;;;4.70;99.90;;;;;;5033927;28;20090;-73
2022/02/22 05:56:50;;;;;;;44.17;5.32;;;4.70;99.90;;;;;;5033884;28;20378;-73
2022/02/22 05:59:16;;;;;;;45.75;7.07;;;4.70;99.90;;;;;;5033648;28;20448;-74
2022/02/22 06:01:43;;;;;;;47.78;5.80;;;4.60;99.90;;;;;;5034245;28;20029;-74
2022/02/22 06:04:10;;;;;;;46.33;6.70;;;4.60;99.90;;;;;;5034325;28;20140;-74
2022/02/22 06:06:36;;;;;;;55.33;7.35;;;4.60;99.90;;;;;;5034220;28;20485;-73
2022/02/22 06:09:02;;;;;;;56.70;7.13;;;4.60;99.90;;;;;;5033722;28;20018;-75
2022/02/22 06:11:28;;;;;;;31.38;5.30;;;4.60;99.90;;;;;;5033812;28;20071;-74
2022/02/22 06:13:53;;;;;;;51.35;5.13;;;4.50;99.90;;;;;;5033681;28;20446;-73
2022/02/22 06:16:19;;;;;;;40.08;5.25;;;4.40;99.90;;;;;;5034061;28;20543;-73
2022/02/22 06:18:45;;;;;;;45.10;6.63;;;4.40;99.90;;;;;;5033938;28;20084;-74
2022/02/22 06:21:10;;;;;;;35.85;5.10;;;4.40;99.90;;;;;;5035308;28;20057;-74
2022/02/22 06:23:36;;;;;;;47.75;7.03;;;4.30;99.90;;;;;;5037729;28;20022;-73
2022/02/22 06:26:02;;;;;;;50.38;5.65;;;4.30;99.90;;;;;;5037528;28;20491;-73
2022/02/22 06:28:27;;;;;;;39.20;5.72;;;4.30;99.90;;;;;;5019762;28;20548;-73
2022/02/22 06:30:53;;;;;;;33.45;5.07;;;4.30;99.90;;;;;;5037467;28;20028;-74
2022/02/22 06:33:18;;;;;;;46.20;5.00;;;4.20;99.90;;;;;;5037685;28;20049;-74
2022/02/22 06:35:44;;;;;;;39.33;5.40;;;4.10;99.90;;;;;;5020011;28;20536;-73
2022/02/22 06:38:09;;;;;;;43.42;5.82;;;4.10;99.90;;;;;;5037510;28;20025;-73
2022/02/22 06:40:36;;;;;;;47.70;6.13;;;4.00;99.90;;;;;;5037237;28;20034;-74
2022/02/22 06:43:02;;;;;;;45.72;5.57;;;4.00;99.90;;;;;;5037335;28;20021;-73
2022/02/22 06:45:28;;;;;;;45.03;5.18;;;4.00;99.90;;;;;;5037496;28;20109;-73
2022/02/22 06:47:54;;;;;;;62.63;6.65;;;3.90;99.90;;;;;;5019302;28;20120;-73
2022/02/22 06:50:20;;;;;;;69.20;6.22;;;3.90;99.90;;;;;;5037047;28;20025;-73
2022/02/22 06:52:46;;;;;;;31.83;5.82;;;3.90;99.90;;;;;;5037390;28;20025;-73
2022/02/22 06:55:13;;;;;;;48.00;6.43;;;3.90;99.90;;;;;;5037083;28;20025;-73
2022/02/22 06:57:40;;;;;;;59.15;7.32;;;3.90;99.90;;;;;;5037043;28;20026;-74
2022/02/22 07:00:11;;;;;;;33.90;5.15;;;3.90;99.90;;;;;;5037035;28;20088;-74
2022/02/22 07:02:37;;;;;;;46.72;5.30;;;3.80;99.90;;;;;;5037261;28;20481;-73
2022/02/22 07:05:04;;;;;;;41.90;6.95;;;3.80;99.90;;;;;;5037260;28;20057;-73
2022/02/22 07:07:30;;;;;;;46.97;5.07;;;3.80;99.90;;;;;;5036857;28;20022;-73
2022/02/22 07:09:55;;;;;;;43.15;6.97;;;3.80;99.90;;;;;;5018976;28;20025;-74
2022/02/22 07:12:22;;;;;;;42.88;5.90;;;3.80;99.90;;;;;;5036760;28;20026;-73
2022/02/22 07:14:47;;;;;;;51.97;6.00;;;3.80;99.90;;;;;;5036973;28;20029;-73
2022/02/22 07:17:13;;;;;;;49.17;7.57;;;3.90;99.90;;;;;;5036694;28;20047;-73
2022/02/22 07:19:38;;;;;;;51.65;5.68;;;3.80;99.90;;;;;;5036590;28;20448;-74
2022/02/22 07:22:04;;;;;;;47.65;7.28;;;3.90;99.90;;;;;;5019223;28;20544;-73
2022/02/22 07:24:30;;;;;;;41.97;6.45;;;3.90;99.90;;;;;;5036458;28;20394;-73
2022/02/22 07:26:55;;;;;;;51.33;6.63;;;4.00;99.90;;;;;;5036444;28;20040;-73
2022/02/22 07:29:21;;;;;;;57.40;7.10;;;4.00;99.90;;;;;;5036681;28;20049;-74
2022/02/22 07:31:47;;;;;;;40.55;5.13;;;4.10;99.90;;;;;;5018146;28;20026;-73
2022/02/22 07:34:12;;;;;;;36.03;5.05;;;4.10;99.90;;;;;;5035798;28;20030;-73
2022/02/22 07:36:40;;;;;;;36.92;5.55;;;4.10;99.90;;;;;;5036620;28;20037;-73
2022/02/22 07:39:06;;;;;;;52.83;6.07;;;3.90;99.90;;;;;;5037005;28;20447;-74
2022/02/22 07:41:32;;;;;;;46.30;5.68;;;3.90;99.90;;;;;;5036366;28;20052;-74
2022/02/22 07:43:58;;;;;;;60.17;5.35;;;3.90;99.90;;;;;;5037221;28;20097;-73
2022/02/22 07:46:23;;;;;;;57.58;7.43;;;3.90;99.90;;;;;;5035984;28;20029;-73
2022/02/22 07:48:49;;;;;;;53.35;6.03;;;3.80;99.90;;;;;;5036308;28;20432;-74
2022/02/22 07:51:16;;;;;;;123.05;40.90;;;3.90;99.90;;;;;;5036018;28;20449;-74
2022/02/22 07:53:46;;;;;;;113.05;34.03;;;3.90;99.90;;;;;;5036502;28;20462;-73
2022/02/22 07:56:13;;;;;;;106.20;28.17;;;3.90;99.90;;;;;;5036160;28;20034;-73
2022/02/22 07:58:39;;;;;;;129.45;32.95;;;4.00;99.90;;;;;;5035887;28;20030;-73
2022/02/22 08:01:06;;;;;;;88.05;17.95;;;4.00;99.90;;;;;;5035587;28;20057;-74
2022/02/22 08:03:35;;;;;;;148.63;29.85;;;4.10;99.90;;;;;;5036208;28;20037;-73
2022/02/22 08:06:00;;;;;;;167.20;36.83;;;4.30;99.90;;;;;;5018032;28;20025;-73
2022/02/22 08:08:26;;;;;;;259.05;57.60;;;4.50;99.90;;;;;;5035776;28;20039;-73
2022/02/22 08:10:52;;;;;;;283.98;56.30;;;4.60;99.90;;;;;;5035615;28;20481;-74
2022/02/22 08:13:18;;;;;;;246.77;49.55;;;4.80;99.90;;;;;;5035861;28;20025;-73
2022/02/22 08:15:43;;;;;;;578.53;137.23;;;4.90;99.90;;;;;;5035743;28;20071;-73
2022/02/22 08:18:09;;;;;;;264.42;58.67;;;5.00;99.90;;;;;;5035617;28;20497;-73
2022/02/22 08:20:35;;;;;;;129.82;28.33;;;5.20;99.90;;;;;;5035368;28;20465;-74
2022/02/22 08:23:00;;;;;;;264.52;60.28;;;5.30;99.90;;;;;;5035662;28;20100;-74
2022/02/22 08:25:27;;;;;;;71.22;19.50;;;5.20;99.90;;;;;;5035827;28;20033;-73
2022/02/22 08:27:52;;;;;;;57.90;10.02;;;5.20;99.90;;;;;;5035298;28;20397;-73
2022/02/22 08:30:18;;;;;;;77.13;16.95;;;5.20;99.90;;;;;;5035271;28;20021;-74
2022/02/22 08:32:44;;;;;;;57.17;13.45;;;5.50;99.90;;;;;;5017490;28;20017;-74
2022/02/22 08:35:09;;;;;;;64.53;16.73;;;5.70;99.90;;;;;;5035249;28;20021;-73
2022/02/22 08:37:35;;;;;;;37.95;6.88;;;5.80;99.90;;;;;;5035482;28;20029;-73
2022/02/22 08:40:01;;;;;;;70.47;12.45;;;5.90;99.90;;;;;;5035010;28;20021;-74
2022/02/22 08:42:27;;;;;;;83.97;15.32;;;6.00;99.90;;;;;;5035060;28;20056;-73
2022/02/22 08:44:54;;;;;;;52.13;9.63;;;6.00;99.90;;;;;;5034777;28;20045;-73
2022/02/22 08:47:20;;;;;;;72.13;15.55;;;6.00;99.90;;;;;;5034885;28;20025;-73
2022/02/22 08:49:47;;;;;;;47.55;7.78;;;6.10;99.90;;;;;;5034812;28;20071;-74
2022/02/22 08:52:13;;;;;;;111.57;18.00;;;6.10;99.90;;;;;;5035437;28;20017;-74
2022/02/22 08:54:39;;;;;;;96.03;17.88;;;6.00;99.90;;;;;;5034787;28;20021;-74
2022/02/22 08:57:05;;;;;;;65.82;6.95;;;6.00;99.90;;;;;;5017047;28;20492;-74
2022/02/22 08:59:30;;;;;;;58.70;11.57;;;6.00;99.90;;;;;;5034406;28;20048;-74
2022/02/22 09:01:56;;;;;;;76.85;10.50;;;6.10;99.90;;;;;;5085778;23;20037;-74
2022/02/22 09:04:22;;;;;;;64.45;8.90;;;6.10;99.90;;;;;;5054303;28;20037;-74
2022/02/22 09:06:47;;;;;;;60.17;9.65;;;6.20;99.90;;;;;;5054219;28;20021;-74
2022/02/22 09:09:13;;;;;;;132.63;21.65;;;6.30;99.90;;;;;;5036265;28;20029;-74
2022/02/22 09:11:39;;;;;;;54.03;10.57;;;6.20;99.90;;;;;;5054590;28;20059;-74
2022/02/22 09:14:05;;;;;;;65.88;9.45;;;6.30;99.90;;;;;;5054147;28;20027;-75
2022/02/22 09:16:30;;;;;;;65.22;9.30;;;6.30;99.90;;;;;;5054379;28;20031;-74
2022/02/22 09:18:56;;;;;;;52.55;9.80;;;6.30;99.90;;;;;;5054233;28;20025;-75
2022/02/22 09:21:22;;;;;;;55.28;8.60;;;6.30;99.90;;;;;;5054238;28;20029;-74
2022/02/22 09:23:47;;;;;;;73.75;9.82;;;6.30;99.90;;;;;;5054099;28;20028;-75
2022/02/22 09:26:13;;;;;;;42.13;8.13;;;6.30;99.90;;;;;;5036101;28;20048;-75
2022/02/22 09:28:39;;;;;;;49.60;9.00;;;6.30;99.90;;;;;;5053980;28;20078;-75
2022/02/22 09:31:05;;;;;;;54.15;8.13;;;6.30;99.90;;;;;;5054148;28;20376;-75
2022/02/22 09:33:30;;;;;;;48.08;7.85;;;6.20;99.90;;;;;;5054073;28;20028;-75
2022/02/22 09:35:56;;;;;;;71.25;8.02;;;6.20;99.90;;;;;;5054184;28;20036;-74
2022/02/22 09:38:21;;;;;;;43.70;7.78;;;6.20;99.90;;;;;;5053820;28;20025;-74
2022/02/22 09:40:47;;;;;;;41.72;7.03;;;6.20;99.90;;;;;;5053631;28;20025;-74
2022/02/22 09:43:13;;;;;;;50.60;8.90;;;6.20;99.90;;;;;;5053585;28;20033;-74
2022/02/22 09:45:39;;;;;;;55.75;8.10;;;6.20;99.90;;;;;;5035654;28;20033;-74
2022/02/22 09:48:05;;;;;;;53.90;9.45;;;6.20;99.90;;;;;;5054024;28;20570;-74
2022/02/22 09:50:32;;;;;;;56.70;6.72;;;6.20;99.90;;;;;;5053831;28;20033;-74
2022/02/22 09:52:58;;;;;;;50.20;6.72;;;6.30;99.90;;;;;;5053694;28;20104;-75
2022/02/22 09:55:24;;;;;;;37.35;6.78;;;6.30;99.90;;;;;;5055305;28;20052;-73
2022/02/22 09:57:51;;;;;;;49.67;5.80;;;6.40;99.90;;;;;;5060698;28;20461;-74
2022/02/22 10:00:31;;;;;;;63.47;11.52;;;6.30;99.90;;;;;;5059954;28;20032;-75
2022/02/22 10:02:57;;;;;;;61.25;9.00;;;6.30;99.90;;;;;;5060194;28;20412;-75
2022/02/22 10:05:24;;;;;;;55.85;7.43;;;6.30;99.90;;;;;;5060659;28;20067;-74
2022/02/22 10:08:01;;;;;;;72.30;12.68;;;6.30;99.90;;;;;;5059959;28;20032;-74
2022/02/22 10:10:40;;;;;;;50.28;6.07;;;6.30;99.90;;;;;;5059891;28;20021;-75
2022/02/22 10:13:17;;;;;;;60.28;8.02;;;6.40;99.90;;;;;;5060547;28;20051;-75
2022/02/22 10:15:44;;;;;;;53.65;7.15;;;6.40;99.90;;;;;;5060619;28;20021;-75
2022/02/22 10:18:11;;;;;;;62.42;8.55;;;6.40;99.90;;;;;;5060341;28;20473;-75
2022/02/22 10:20:38;;;;;;;35.78;5.95;;;6.40;99.90;;;;;;5059924;28;20021;-75
2022/02/22 10:23:06;;;;;;;60.40;6.25;;;6.40;99.90;;;;;;5042101;28;20029;-74
2022/02/22 10:25:32;;;;;;;59.03;5.78;;;6.40;99.90;;;;;;5058903;28;20025;-75
2022/02/22 10:28:00;;;;;;;57.13;8.10;;;6.40;99.90;;;;;;5057839;28;20029;-74
2022/02/22 10:30:39;;;;;;;34.97;5.45;;;6.50;99.90;;;;;;5057448;28;20021;-75
2022/02/22 10:33:27;;;;;;;51.78;7.75;;;6.50;99.90;;;;;;5059605;28;20108;-74
2022/02/22 10:36:04;;;;;;;64.25;10.88;;;6.50;99.90;;;;;;5059883;28;20021;-74
2022/02/22 10:38:32;;;;;;;55.38;7.25;;;6.50;99.90;;;;;;5059819;28;20017;-74
2022/02/22 10:41:02;;;;;;;77.00;12.93;;;6.50;99.90;;;;;;5059662;28;20021;-75
2022/02/22 10:43:28;;;;;;;87.10;14.88;;;6.60;99.90;;;;;;5041553;28;20048;-75
2022/02/22 10:45:57;;;;;;;41.45;5.95;;;6.50;99.90;;;;;;5059999;28;20033;-74
2022/02/22 10:48:49;;;;;;;46.30;6.50;;;6.60;99.90;;;;;;5059784;28;20481;-74
2022/02/22 10:51:16;;;;;;;59.45;7.50;;;6.50;99.90;;;;;;5060193;28;20029;-74
2022/02/22 10:53:43;;;;;;;50.83;7.95;;;6.50;99.90;;;;;;5059711;28;20380;-74
2022/02/22 10:56:11;;;;;;;46.67;7.38;;;6.50;99.90;;;;;;5059644;28;20028;-74
2022/02/22 10:58:43;;;;;;;54.25;8.05;;;6.50;99.90;;;;;;5059638;28;20082;-74
2022/02/22 11:01:14;;;;;;;51.30;6.95;;;6.60;99.90;;;;;;5059557;28;20063;-74
2022/02/22 11:03:41;;;;;;;39.03;5.53;;;6.70;99.90;;;;;;5059694;28;20075;-74
2022/02/22 11:06:08;;;;;;;51.95;7.13;;;6.80;99.90;;;;;;5059722;28;20021;-75
2022/02/22 11:08:34;;;;;;;46.08;6.50;;;6.90;99.90;;;;;;5056790;28;20025;-75
2022/02/22 11:11:10;;;;;;;55.38;7.78;;;6.90;99.90;;;;;;5056610;28;20094;-75
2022/02/22 11:13:36;;;;;;;55.95;6.25;;;7.00;99.90;;;;;;5056978;28;20028;-75
2022/02/22 11:16:13;;;;;;;51.30;6.47;;;7.00;99.90;;;;;;5056453;28;20025;-75
2022/02/22 11:18:48;;;;;;;40.13;5.72;;;6.80;99.90;;;;;;5056687;28;20112;-75
2022/02/22 11:21:15;;;;;;;42.17;7.07;;;7.00;99.90;;;;;;5056218;28;20029;-75
2022/02/22 11:23:42;;;;;;;48.08;6.13;;;6.90;99.90;;;;;;5056616;28;20035;-75
2022/02/22 11:26:20;;;;;;;64.05;9.35;;;7.00;99.90;;;;;;5056278;28;20033;-75
2022/02/22 11:28:52;;;;;;;51.28;6.95;;;7.00;99.90;;;;;;5056344;28;20046;-75
2022/02/22 11:31:27;;;;;;;62.20;11.30;;;7.00;99.90;;;;;;5056113;28;20479;-75
2022/02/22 11:34:00;;;;;;;40.83;8.10;;;7.00;99.90;;;;;;5056853;28;20373;-75
2022/02/22 11:36:27;;;;;;;51.05;7.45;;;7.10;99.90;;;;;;5056289;28;20492;-75
2022/02/22 11:38:53;;;;;;;42.35;7.07;;;7.00;99.90;;;;;;5056016;28;20126;-75
2022/02/22 11:41:22;;;;;;;63.97;7.25;;;6.80;99.90;;;;;;5055946;28;20025;-74
2022/02/22 11:44:03;;;;;;;49.70;6.40;;;6.80;99.90;;;;;;5056159;28;20028;-74
2022/02/22 11:46:41;;;;;;;49.78;6.90;;;6.70;99.90;;;;;;5056034;28;20170;-74
2022/02/22 11:49:09;;;;;;;46.25;6.97;;;6.80;99.90;;;;;;5055833;28;20104;-74
2022/02/22 11:51:43;;;;;;;56.72;6.45;;;6.90;99.90;;;;;;5055451;28;20473;-75
2022/02/22 11:54:23;;;;;;;46.88;7.68;;;7.00;99.90;;;;;;5055812;28;20036;-75
2022/02/22 11:57:02;;;;;;;48.45;6.22;;;7.10;99.90;;;;;;5055985;28;20017;-74
2022/02/22 11:59:33;;;;;;;64.90;9.73;;;7.10;99.90;;;;;;5056074;28;20365;-74
2022/02/22 12:02:00;;;;;;;68.97;8.23;;;7.10;99.90;;;;;;5055259;28;20366;-74
2022/02/22 12:04:28;;;;;;;46.03;7.65;;;7.20;99.90;;;;;;5055452;28;20025;-75
2022/02/22 12:06:56;;;;;;;47.55;7.25;;;7.20;99.90;;;;;;5055547;28;20032;-75
2022/02/22 12:09:33;;;;;;;68.20;8.30;;;7.00;99.90;;;;;;5055306;28;20146;-75
2022/02/22 12:12:20;;;;;;;63.78;7.30;;;7.10;99.90;;;;;;5055492;28;20052;-75
2022/02/22 12:14:53;;;;;;;47.13;7.22;;;7.00;99.90;;;;;;5037280;28;20021;-74
2022/02/22 12:17:20;;;;;;;56.90;8.15;;;7.10;99.90;;;;;;5037837;28;20017;-74
2022/02/22 12:19:51;;;;;;;55.92;9.30;;;7.00;99.90;;;;;;5054702;28;20546;-74
2022/02/22 12:22:25;;;;;;;59.88;8.00;;;6.90;99.90;;;;;;5055237;28;20033;-74
2022/02/22 12:25:00;;;;;;;;;;;6.90;99.90;;;;;;5055612;28;20413;-74
2022/02/22 12:27:29;;;;;;;48.97;6.43;;;6.80;99.90;;;;;;5054936;28;20370;-74
2022/02/22 12:29:55;;;;;;;65.70;7.97;;;6.90;99.90;;;;;;5055081;28;20072;-74
2022/02/22 12:32:32;;;;;;;54.78;7.93;;;6.90;99.90;;;;;;5054676;28;20017;-74
2022/02/22 12:35:01;;;;;;;75.00;8.80;;;6.90;99.90;;;;;;5036853;28;20028;-74
2022/02/22 12:37:29;;;;;;;86.35;9.50;;;6.80;99.90;;;;;;5054757;28;20130;-74
2022/02/22 12:39:54;;;;;;;62.72;8.60;;;6.80;99.90;;;;;;5054815;28;20117;-74
2022/02/22 12:42:20;;;;;;;49.10;7.50;;;6.90;99.90;;;;;;5054587;28;20389;-74
2022/02/22 12:44:49;;;;;;;49.47;8.35;;;7.00;99.90;;;;;;5054539;28;20025;-74